Latest Weather Observations for Maria Island

IDT60901

Issued at 10:31 am EDT Monday 27 February 2017 (issued every 10 minutes, with the page automatically refreshed every 10 minutes)

About weather observations | Map of Hobart area stations | Latest observations for Hobart area | Other Formats
Station Details ID: 092124 Name: MARIA ISLAND (POINT LESUEUR) Lat: -42.66 Lon: 148.02 Height: 28.0 m
Data from the previous 72 hours. | See also: Recent months at Maria Island
Date/Time
EDT
Temp
°C
App
Temp
°C
Dew
Point
°C
Rel
Hum
%
Delta-T
°C
Wind Press
QNH
hPa
Press
MSL
hPa
Rain since
9am
mm
Dir  Spd
km/h
Gust
km/h
Spd
kts
Gust
kts
27/10:30am 18.8 - - - - N 24 26 13 14 1026.7 1026.7 0.0
27/10:00am 18.2 - - - - N 22 26 12 14 1026.7 1026.7 0.0
27/09:30am 17.6 - - - - N 22 24 12 13 1026.8 1026.8 0.0
27/09:00am 16.6 - - - - N 13 15 7 8 1026.9 1026.9 0.0
27/08:30am 16.2 11.7 -0.1 33 7.0 N 13 15 7 8 1027.0 1027.0 0.0
27/08:00am 15.4 11.5 -1.2 32 6.8 NNW 9 13 5 7 1026.8 1026.8 0.0
27/07:30am 14.8 10.1 -1.7 32 6.7 NNW 13 13 7 7 1026.7 1026.7 0.0
27/07:00am 14.6 9.5 -1.9 32 6.6 NNW 15 15 8 8 1026.3 1026.3 0.0
27/06:30am 14.9 9.8 -1.6 32 6.7 N 15 17 8 9 1026.1 1026.1 0.0
27/06:00am 14.7 10.0 -1.8 32 6.6 N 13 15 7 8 1025.8 1025.8 0.0
27/05:30am 14.7 10.4 -1.8 32 6.7 NNW 11 13 6 7 1025.7 1025.7 0.0
27/05:00am 14.8 10.5 -1.7 32 6.7 NNW 11 13 6 7 1025.5 1025.5 0.0
27/04:30am 14.7 10.0 -1.8 32 6.7 NNW 13 15 7 8 1025.4 1025.4 0.0
27/04:00am 15.3 10.7 -1.3 32 6.8 N 13 17 7 9 1025.5 1025.5 0.0
27/03:30am 15.4 9.6 -1.2 32 6.9 NNE 19 20 10 11 1025.3 1025.3 0.0
27/03:00am 15.5 9.6 -1.1 32 6.8 NNE 20 22 11 12 1025.4 1025.4 0.0
27/02:30am 15.8 9.5 -0.8 32 6.9 NNE 22 26 12 14 1025.4 1025.4 0.0
27/02:00am 15.9 8.9 -0.8 32 7.0 N 26 30 14 16 1025.3 1025.3 0.0
27/01:30am 16.0 10.1 -0.7 32 7.0 N 20 26 11 14 1025.4 1025.4 0.0
27/01:00am 16.1 9.9 -0.6 32 7.0 N 22 26 12 14 1025.6 1025.6 0.0
27/12:30am 16.4 9.4 -0.3 32 7.1 N 26 28 14 15 1025.5 1025.5 0.0
27/12:00am 16.6 9.3 -0.1 32 7.1 N 28 33 15 18 1025.6 1025.6 0.0
 
Date/Time
EDT
Temp
°C
App
Temp
°C
Dew
Point
°C
Rel
Hum
%
Delta-T
°C
Wind Press
QNH
hPa
Press
MSL
hPa
Rain since
9am
mm
Dir  Spd
km/h
Gust
km/h
Spd
kts
Gust
kts
26/11:30pm 16.6 10.0 -0.1 32 7.1 N 24 30 13 16 1025.8 1025.8 0.0
26/11:00pm 16.7 9.8 -0.1 32 7.2 N 26 32 14 17 1025.9 1025.9 0.0
26/10:30pm 16.7 9.8 -0.1 32 7.2 N 26 30 14 16 1025.8 1025.8 0.0
26/10:00pm 16.8 9.9 0.0 32 7.2 N 26 35 14 19 1025.7 1025.7 0.0
26/09:30pm 16.8 9.9 0.0 32 7.2 N 26 33 14 18 1025.6 1025.6 0.0
26/09:00pm 17.0 9.8 0.6 33 7.1 N 28 33 15 18 1025.2 1025.2 0.0
26/08:30pm 17.0 9.8 0.6 33 7.1 NNE 28 37 15 20 1025.1 1025.1 0.0
26/08:00pm 17.1 9.5 0.7 33 7.1 N 30 33 16 18 1025.0 1025.0 0.0
26/07:30pm 17.3 10.5 0.9 33 7.2 N 26 33 14 18 1024.9 1024.9 0.0
26/07:00pm 17.6 12.1 1.6 34 7.1 NNE 20 24 11 13 1024.7 1024.7 0.0
26/06:30pm 17.7 11.4 1.7 34 7.2 NNE 24 30 13 16 1024.5 1024.5 0.0
26/06:00pm 18.4 11.5 2.7 35 7.2 NNE 28 35 15 19 1024.1 1024.1 0.0
26/05:30pm 19.0 12.3 3.6 36 7.3 NNE 28 35 15 19 1023.7 1023.7 0.0
26/05:00pm 19.5 12.9 4.0 36 7.4 NNE 28 33 15 18 1023.9 1023.9 0.0
26/04:30pm 19.7 13.9 4.2 36 7.4 NNE 24 30 13 16 1024.0 1024.0 0.0
26/04:00pm 20.2 14.5 4.7 36 7.5 NNE 24 30 13 16 1024.0 1024.0 0.0
26/03:30pm 20.3 14.2 4.8 36 7.6 NNE 26 33 14 18 1024.1 1024.1 0.0
26/03:00pm 20.7 15.0 5.1 36 7.6 N 24 28 13 15 1024.3 1024.3 0.0
26/02:30pm 20.5 14.8 4.9 36 7.6 N 24 30 13 16 1024.5 1024.5 0.0
26/02:00pm 20.9 16.0 5.3 36 7.7 N 20 22 11 12 1024.7 1024.7 0.0
26/01:30pm 20.4 16.0 4.8 36 7.6 N 17 20 9 11 1024.8 1024.8 0.0
26/01:00pm 19.7 14.8 4.2 36 7.4 N 19 20 10 11 1025.0 1025.0 0.0
26/12:30pm 19.0 14.4 3.6 36 7.3 N 17 19 9 10 1025.2 1025.2 0.0
26/12:00pm 19.3 15.1 3.9 36 7.3 N 15 17 8 9 1025.4 1025.4 0.0
26/11:30am 18.8 14.1 3.4 36 7.2 N 17 19 9 10 1025.5 1025.5 0.0
26/11:00am 18.4 14.1 3.1 36 7.1 N 15 19 8 10 1025.8 1025.8 0.0
26/10:30am 17.0 12.8 1.8 36 6.8 N 13 17 7 9 1026.0 1026.0 0.0
26/10:00am 16.3 11.6 1.2 36 6.6 N 15 17 8 9 1026.1 1026.1 0.0
26/09:30am 15.6 10.4 0.2 35 6.6 N 17 20 9 11 1026.0 1026.0 0.0
26/09:00am 14.7 9.3 -1.0 34 6.4 N 17 19 9 10 1026.0 1026.0 0.0
26/08:30am 14.5 9.1 -1.6 33 6.5 N 17 20 9 11 1025.7 1025.7 0.0
26/08:00am 14.0 7.9 -2.4 32 6.5 NNW 20 24 11 13 1025.6 1025.6 0.0
26/07:30am 13.4 7.4 -3.4 31 6.5 NNW 19 20 10 11 1025.4 1025.4 0.0
26/07:00am 13.2 7.0 -3.5 31 6.4 NNW 20 22 11 12 1025.2 1025.2 0.0
26/06:30am 12.9 7.2 -3.8 31 6.3 NNW 17 20 9 11 1025.0 1025.0 0.0
26/06:00am 12.8 7.1 -3.9 31 6.3 NW 17 22 9 12 1025.0 1025.0 0.0
26/05:30am 13.4 7.4 -3.4 31 6.5 NNW 19 22 10 12 1024.7 1024.7 0.0
26/05:00am 13.8 8.2 -3.0 31 6.5 NNW 17 20 9 11 1024.5 1024.5 0.0
26/04:30am 14.1 7.6 -2.3 32 6.5 NNW 22 28 12 15 1024.7 1024.7 0.0
26/04:00am 14.3 7.5 -2.1 32 6.5 N 24 30 13 16 1024.6 1024.6 0.0
26/03:30am 14.6 7.8 -1.9 32 6.7 N 24 32 13 17 1024.8 1024.8 0.0
26/03:00am 14.5 9.0 -2.0 32 6.6 NNW 17 22 9 12 1025.6 1025.6 0.0
26/02:30am 13.6 9.2 -2.8 32 6.4 NW 11 15 6 8 1025.5 1025.5 0.0
26/02:00am 12.5 8.7 -3.7 32 6.1 WNW 7 9 4 5 1025.7 1025.7 0.0
26/01:30am 13.0 9.4 -3.3 32 6.3 NW 6 9 3 5 1026.0 1026.0 0.0
26/01:00am 13.6 11.2 -2.8 32 6.4 CALM 0 0 0 0 1026.2 1026.2 0.0
26/12:30am 13.4 10.3 -2.9 32 6.4 NW 4 6 2 3 1026.6 1026.6 0.0
26/12:00am 13.4 10.6 -2.9 32 6.3 NNW 2 6 1 3 1026.5 1026.5 0.0
 
Date/Time
EDT
Temp
°C
App
Temp
°C
Dew
Point
°C
Rel
Hum
%
Delta-T
°C
Wind Press
QNH
hPa
Press
MSL
hPa
Rain since
9am
mm
Dir  Spd
km/h
Gust
km/h
Spd
kts
Gust
kts
25/11:30pm 12.9 9.7 -3.4 32 6.3 NE 4 6 2 3 1026.7 1026.7 0.0
25/11:00pm 13.8 11.5 -2.6 32 6.4 CALM 0 0 0 0 1026.9 1026.9 0.0
25/10:30pm 13.9 11.2 -2.5 32 6.5 SE 2 4 1 2 1027.1 1027.1 0.0
25/10:00pm 13.5 10.4 -2.8 32 6.3 ESE 4 6 2 3 1027.4 1027.4 0.0
25/09:30pm 13.2 10.0 -3.1 32 6.3 NNE 4 4 2 2 1026.9 1026.9 0.0
25/09:00pm 13.4 9.9 -2.9 32 6.3 E 6 6 3 3 1026.6 1026.6 0.0
25/08:30pm 13.7 10.0 -2.7 32 6.4 E 7 9 4 5 1026.3 1026.3 0.0
25/08:00pm 14.1 10.1 -2.3 32 6.5 E 9 13 5 7 1026.1 1026.1 0.0
25/07:30pm 14.8 10.5 -1.3 33 6.6 E 11 17 6 9 1025.9 1025.9 0.0
25/07:00pm 15.2 10.3 -0.5 34 6.5 ESE 15 20 8 11 1025.8 1025.8 0.0
25/06:30pm 15.6 10.8 0.2 35 6.6 ESE 15 20 8 11 1025.7 1025.7 0.0
25/06:00pm 15.9 10.8 0.5 35 6.6 ESE 17 20 9 11 1025.6 1025.6 0.0
25/05:30pm 15.8 10.3 0.4 35 6.6 E 19 24 10 13 1025.5 1025.5 0.0
25/05:00pm 16.2 10.5 0.7 35 6.7 E 20 26 11 14 1025.6 1025.6 0.0
25/04:30pm 16.4 11.0 1.3 36 6.6 E 19 24 10 13 1025.5 1025.5 0.0
25/04:00pm 16.6 11.0 1.1 35 6.8 E 20 26 11 14 1025.5 1025.5 0.0
25/03:30pm 17.0 12.8 1.8 36 6.8 SSE 13 20 7 11 1025.6 1025.6 0.0
25/03:00pm 16.7 11.3 1.2 35 6.8 ESE 19 24 10 13 1025.8 1025.8 0.0
25/02:30pm 16.7 11.2 1.6 36 6.7 ESE 20 24 11 13 1026.2 1026.2 0.0
25/02:00pm 17.1 13.3 1.9 36 6.8 S 11 15 6 8 1026.4 1026.4 0.0
25/01:30pm 16.7 11.7 1.6 36 6.7 S 17 20 9 11 1026.2 1026.2 0.0
25/01:00pm 16.9 11.6 1.8 36 6.7 S 19 22 10 12 1026.3 1026.3 0.0
25/12:30pm 16.5 10.6 1.4 36 6.7 S 22 24 12 13 1026.5 1026.5 0.0
25/12:00pm 16.3 10.7 1.2 36 6.6 S 20 24 11 13 1026.6 1026.6 0.0
25/11:30am 16.0 10.3 0.6 35 6.7 SSW 20 24 11 13 1026.7 1026.7 0.0
25/11:00am 15.5 9.0 0.1 35 6.5 SSW 24 28 13 15 1026.8 1026.8 0.0
25/10:30am 15.5 9.0 0.1 35 6.6 SSW 24 30 13 16 1026.8 1026.8 0.0
25/10:00am 14.9 7.2 -0.4 35 6.4 SSW 30 35 16 19 1026.8 1026.8 0.0
25/09:30am 14.4 8.1 -0.8 35 6.3 SW 22 30 12 16 1026.8 1026.8 0.0
25/09:00am 14.1 7.3 -1.5 34 6.3 SSW 24 32 13 17 1026.7 1026.7 0.0
25/08:30am 13.4 6.5 -2.5 33 6.3 SW 24 30 13 16 1026.5 1026.5 0.0
25/08:00am 12.5 8.3 -3.7 32 6.1 WSW 9 17 5 9 1026.6 1026.6 0.0
25/07:30am 12.0 6.6 -4.6 31 6.1 SW 15 19 8 10 1026.3 1026.3 0.0
25/07:00am 11.7 7.4 -4.8 31 6.0 WSW 9 13 5 7 1026.1 1026.1 0.0
25/06:30am 11.2 6.9 -5.3 31 5.9 W 9 11 5 6 1025.8 1025.8 0.0
25/06:00am 12.4 5.3 -4.2 31 6.2 SW 24 28 13 15 1025.4 1025.4 0.0
25/05:30am 12.1 6.3 -4.5 31 6.2 WSW 17 24 9 13 1025.2 1025.2 0.0
25/05:00am 11.9 7.2 -4.7 31 6.1 W 11 15 6 8 1025.1 1025.1 0.0
25/04:30am 12.3 6.0 -4.3 31 6.2 SW 20 28 11 15 1024.9 1024.9 0.0
25/04:00am 12.4 5.3 -4.2 31 6.2 SW 24 30 13 16 1024.9 1024.9 0.0
25/03:30am 12.6 5.1 -4.1 31 6.3 SW 26 32 14 17 1024.6 1024.6 0.0
25/03:00am 12.6 5.5 -4.1 31 6.2 SW 24 32 13 17 1024.7 1024.7 0.0
25/02:30am 13.1 4.6 -3.6 31 6.4 SSW 32 39 17 21 1024.8 1024.8 0.0
25/02:00am 13.1 4.0 -3.6 31 6.4 SSW 35 44 19 24 1024.6 1024.6 0.0
25/01:30am 13.3 4.8 -3.4 31 6.4 SSW 32 37 17 20 1024.7 1024.7 0.0
25/01:00am 13.5 5.1 -2.8 32 6.3 SSW 32 37 17 20 1024.4 1024.4 0.0
25/12:30am 13.7 5.3 -2.7 32 6.4 SSW 32 37 17 20 1024.2 1024.2 0.0
25/12:00am 13.9 7.4 -2.5 32 6.4 SSW 22 30 12 16 1024.3 1024.3 0.0
 
Date/Time
EDT
Temp
°C
App
Temp
°C
Dew
Point
°C
Rel
Hum
%
Delta-T
°C
Wind Press
QNH
hPa
Press
MSL
hPa
Rain since
9am
mm
Dir  Spd
km/h
Gust
km/h
Spd
kts
Gust
kts
24/11:30pm 13.8 7.3 -2.6 32 6.5 SSW 22 30 12 16 1024.2 1024.2 0.0
24/11:00pm 13.9 6.3 -2.5 32 6.5 SSW 28 33 15 18 1024.1 1024.1 0.0
24/10:30pm 14.0 6.0 -2.4 32 6.5 SSW 30 35 16 19 1024.0 1024.0 0.0
24/10:00pm 14.3 5.4 -2.1 32 6.5 SSW 35 43 19 23 1023.6 1023.6 0.0
24/09:30pm 14.4 4.7 -2.1 32 6.6 SSW 39 46 21 25 1023.2 1023.2 0.0
24/09:00pm 14.9 4.9 -1.6 32 6.7 SSW 41 48 22 26 1022.7 1022.7 0.0
24/08:30pm 15.4 7.5 -1.2 32 6.9 SSW 30 35 16 19 1022.3 1022.3 0.0
24/08:00pm 15.7 7.3 -0.9 32 6.9 SSW 33 43 18 23 1022.1 1022.1 0.0
24/07:30pm 16.0 6.5 -0.7 32 7.0 SSW 39 44 21 24 1021.6 1021.6 0.0
24/07:00pm 16.3 7.3 0.0 33 6.9 SSW 37 43 20 23 1021.2 1021.2 0.0
24/06:30pm 16.2 7.6 0.3 34 6.8 SSW 35 43 19 23 1020.9 1020.9 0.0
24/06:00pm 16.9 6.8 1.4 35 6.8 SSW 44 50 24 27 1020.4 1020.4 0.0
24/05:30pm 16.4 6.2 0.9 35 6.8 SSW 44 52 24 28 1020.3 1020.3 0.0
24/05:00pm 16.3 4.5 0.4 34 6.8 SSW 52 57 28 31 1019.8 1019.8 0.0
24/04:42pm 16.8 5.1 1.3 35 6.8 SSW 52 63 28 34 1019.4 1019.4 0.0
24/04:30pm 18.1 9.5 2.8 36 7.0 SSW 37 44 20 24 1019.3 1019.3 0.0
24/04:00pm 18.0 9.4 2.7 36 7.0 SSW 37 44 20 24 1019.3 1019.3 0.0
24/03:30pm 19.0 11.9 3.6 36 7.3 S 30 37 16 20 1019.1 1019.1 0.0
24/03:26pm 18.4 12.7 3.1 36 7.1 S 22 37 12 20 1019.1 1019.1 0.0
24/03:00pm 18.8 16.6 3.4 36 7.2 NNW 4 11 2 6 1019.4 1019.4 0.0
24/02:30pm 19.4 13.1 4.0 36 7.3 SW 26 33 14 18 1019.4 1019.4 0.0
24/02:00pm 19.1 16.6 3.7 36 7.3 S 6 9 3 5 1019.4 1019.4 0.0
24/01:30pm 18.6 16.8 3.3 36 7.1 SW 2 6 1 3 1019.8 1019.8 0.0
24/01:00pm 17.6 15.6 2.4 36 6.9 ESE 2 6 1 3 1019.9 1019.9 0.0
24/12:30pm 17.1 14.7 1.9 36 6.8 SE 4 7 2 4 1020.2 1020.2 0.0
24/12:00pm 16.7 13.8 1.2 35 6.8 SSE 6 7 3 4 1020.6 1020.6 0.0
24/11:30am 16.5 13.9 1.0 35 6.8 SW 4 7 2 4 1020.6 1020.6 0.0
24/11:00am 15.8 12.5 0.4 35 6.6 W 7 13 4 7 1020.7 1020.7 0.0

Latest Capital City Observations: Canberra | Sydney | Melbourne | Brisbane | Adelaide | Perth | Hobart | Darwin

Other Formats:

Comma delimited format used in spreadsheet applications
http://www.bom.gov.au/fwo/IDT60901/IDT60901.95988.axf

JavaScript Object Notation format (JSON) in row-major order
http://www.bom.gov.au/fwo/IDT60901/IDT60901.95988.json